sensor_id;sensor_type;location;lat;lon;timestamp;temperature;humidity
14733;DHT22;7457;50.960;6.830;2023-06-22T00:00:55;21.20;68.30
14733;DHT22;7457;50.960;6.830;2023-06-22T00:03:22;21.20;68.20
14733;DHT22;7457;50.960;6.830;2023-06-22T00:05:48;21.30;68.20
14733;DHT22;7457;50.960;6.830;2023-06-22T00:08:14;21.30;68.00
14733;DHT22;7457;50.960;6.830;2023-06-22T00:10:41;21.30;67.90
14733;DHT22;7457;50.960;6.830;2023-06-22T00:13:07;21.30;67.80
14733;DHT22;7457;50.960;6.830;2023-06-22T00:15:33;21.30;67.60
14733;DHT22;7457;50.960;6.830;2023-06-22T00:17:59;21.40;67.40
14733;DHT22;7457;50.960;6.830;2023-06-22T00:20:25;21.40;67.30
14733;DHT22;7457;50.960;6.830;2023-06-22T00:22:55;21.50;67.30
14733;DHT22;7457;50.960;6.830;2023-06-22T00:25:21;21.40;67.40
14733;DHT22;7457;50.960;6.830;2023-06-22T00:27:47;21.40;67.50
14733;DHT22;7457;50.960;6.830;2023-06-22T00:30:13;21.40;67.60
14733;DHT22;7457;50.960;6.830;2023-06-22T00:32:38;21.30;67.90
14733;DHT22;7457;50.960;6.830;2023-06-22T00:35:05;21.20;68.10
14733;DHT22;7457;50.960;6.830;2023-06-22T00:37:31;21.20;68.20
14733;DHT22;7457;50.960;6.830;2023-06-22T00:39:57;21.10;68.40
14733;DHT22;7457;50.960;6.830;2023-06-22T00:42:22;21.10;68.40
14733;DHT22;7457;50.960;6.830;2023-06-22T00:44:48;21.10;68.30
14733;DHT22;7457;50.960;6.830;2023-06-22T00:47:16;21.10;68.30
14733;DHT22;7457;50.960;6.830;2023-06-22T00:49:42;21.00;68.30
14733;DHT22;7457;50.960;6.830;2023-06-22T00:52:09;21.00;68.20
14733;DHT22;7457;50.960;6.830;2023-06-22T00:54:41;21.00;68.30
14733;DHT22;7457;50.960;6.830;2023-06-22T00:57:13;21.00;68.20
14733;DHT22;7457;50.960;6.830;2023-06-22T00:59:42;21.00;68.10
14733;DHT22;7457;50.960;6.830;2023-06-22T01:02:09;20.90;68.00
14733;DHT22;7457;50.960;6.830;2023-06-22T01:04:35;20.90;68.00
14733;DHT22;7457;50.960;6.830;2023-06-22T01:10:16;20.90;67.90
14733;DHT22;7457;50.960;6.830;2023-06-22T01:12:51;20.90;68.00
14733;DHT22;7457;50.960;6.830;2023-06-22T01:15:28;20.90;68.00
14733;DHT22;7457;50.960;6.830;2023-06-22T01:17:56;20.80;67.90
14733;DHT22;7457;50.960;6.830;2023-06-22T01:20:23;20.80;68.00
14733;DHT22;7457;50.960;6.830;2023-06-22T01:23:10;20.80;67.90
14733;DHT22;7457;50.960;6.830;2023-06-22T01:25:47;20.80;68.00
14733;DHT22;7457;50.960;6.830;2023-06-22T01:30:59;20.70;68.00
14733;DHT22;7457;50.960;6.830;2023-06-22T01:33:33;20.70;68.20
14733;DHT22;7457;50.960;6.830;2023-06-22T01:36:01;20.70;68.20
14733;DHT22;7457;50.960;6.830;2023-06-22T01:38:29;20.70;68.30
14733;DHT22;7457;50.960;6.830;2023-06-22T01:40:56;20.70;68.40
14733;DHT22;7457;50.960;6.830;2023-06-22T01:43:25;20.60;68.50
14733;DHT22;7457;50.960;6.830;2023-06-22T01:45:52;20.60;68.60
14733;DHT22;7457;50.960;6.830;2023-06-22T01:48:19;20.60;68.60
14733;DHT22;7457;50.960;6.830;2023-06-22T01:50:45;20.60;68.80
14733;DHT22;7457;50.960;6.830;2023-06-22T01:53:11;20.60;68.80
14733;DHT22;7457;50.960;6.830;2023-06-22T01:55:36;20.60;68.90
14733;DHT22;7457;50.960;6.830;2023-06-22T01:58:02;20.50;69.00
14733;DHT22;7457;50.960;6.830;2023-06-22T02:00:32;20.50;69.00
14733;DHT22;7457;50.960;6.830;2023-06-22T02:03:08;20.50;69.10
14733;DHT22;7457;50.960;6.830;2023-06-22T02:05:39;20.40;69.20
14733;DHT22;7457;50.960;6.830;2023-06-22T02:08:17;20.40;69.30
14733;DHT22;7457;50.960;6.830;2023-06-22T02:10:45;20.40;69.50
14733;DHT22;7457;50.960;6.830;2023-06-22T02:13:13;20.40;69.50
14733;DHT22;7457;50.960;6.830;2023-06-22T02:15:39;20.30;69.60
14733;DHT22;7457;50.960;6.830;2023-06-22T02:18:05;20.30;69.60
14733;DHT22;7457;50.960;6.830;2023-06-22T02:20:31;20.30;69.60
14733;DHT22;7457;50.960;6.830;2023-06-22T02:22:56;20.30;69.80
14733;DHT22;7457;50.960;6.830;2023-06-22T02:25:22;20.30;69.80
14733;DHT22;7457;50.960;6.830;2023-06-22T02:27:48;20.30;69.50
14733;DHT22;7457;50.960;6.830;2023-06-22T02:30:14;20.30;69.40
14733;DHT22;7457;50.960;6.830;2023-06-22T02:32:41;20.30;69.20
14733;DHT22;7457;50.960;6.830;2023-06-22T02:35:08;20.40;69.00
14733;DHT22;7457;50.960;6.830;2023-06-22T02:37:36;20.40;68.90
14733;DHT22;7457;50.960;6.830;2023-06-22T02:40:07;20.40;68.80
14733;DHT22;7457;50.960;6.830;2023-06-22T02:42:34;20.40;68.70
14733;DHT22;7457;50.960;6.830;2023-06-22T02:45:00;20.40;68.70
14733;DHT22;7457;50.960;6.830;2023-06-22T02:47:26;20.40;68.70
14733;DHT22;7457;50.960;6.830;2023-06-22T02:49:52;20.40;68.80
14733;DHT22;7457;50.960;6.830;2023-06-22T02:52:18;20.30;68.90
14733;DHT22;7457;50.960;6.830;2023-06-22T02:54:43;20.30;69.00
14733;DHT22;7457;50.960;6.830;2023-06-22T02:57:11;20.30;69.10
14733;DHT22;7457;50.960;6.830;2023-06-22T02:59:40;20.20;69.30
14733;DHT22;7457;50.960;6.830;2023-06-22T03:02:07;20.20;69.40
14733;DHT22;7457;50.960;6.830;2023-06-22T03:04:33;20.20;69.70
14733;DHT22;7457;50.960;6.830;2023-06-22T03:06:59;20.20;69.80
14733;DHT22;7457;50.960;6.830;2023-06-22T03:09:27;20.10;69.90
14733;DHT22;7457;50.960;6.830;2023-06-22T03:11:53;20.10;70.10
14733;DHT22;7457;50.960;6.830;2023-06-22T03:14:19;20.10;70.30
14733;DHT22;7457;50.960;6.830;2023-06-22T03:16:45;20.00;70.40
14733;DHT22;7457;50.960;6.830;2023-06-22T03:19:10;20.00;70.60
14733;DHT22;7457;50.960;6.830;2023-06-22T03:21:37;20.00;70.70
14733;DHT22;7457;50.960;6.830;2023-06-22T03:24:07;20.00;70.90
14733;DHT22;7457;50.960;6.830;2023-06-22T03:26:33;20.00;71.00
14733;DHT22;7457;50.960;6.830;2023-06-22T03:28:58;20.00;71.10
14733;DHT22;7457;50.960;6.830;2023-06-22T03:31:24;20.00;71.10
14733;DHT22;7457;50.960;6.830;2023-06-22T03:33:50;20.00;71.10
14733;DHT22;7457;50.960;6.830;2023-06-22T03:36:17;20.00;71.20
14733;DHT22;7457;50.960;6.830;2023-06-22T03:38:46;20.00;71.20
14733;DHT22;7457;50.960;6.830;2023-06-22T03:41:12;20.00;71.30
14733;DHT22;7457;50.960;6.830;2023-06-22T03:43:38;20.00;71.30
14733;DHT22;7457;50.960;6.830;2023-06-22T03:46:04;20.00;71.30
14733;DHT22;7457;50.960;6.830;2023-06-22T03:48:29;20.00;71.30
14733;DHT22;7457;50.960;6.830;2023-06-22T03:50:55;20.00;71.30
14733;DHT22;7457;50.960;6.830;2023-06-22T03:53:21;20.00;71.50
14733;DHT22;7457;50.960;6.830;2023-06-22T03:55:50;20.10;71.60
14733;DHT22;7457;50.960;6.830;2023-06-22T03:58:17;20.10;71.80
14733;DHT22;7457;50.960;6.830;2023-06-22T04:00:45;20.10;71.90
14733;DHT22;7457;50.960;6.830;2023-06-22T04:03:11;20.10;72.10
14733;DHT22;7457;50.960;6.830;2023-06-22T04:05:39;20.20;72.30
14733;DHT22;7457;50.960;6.830;2023-06-22T04:08:05;20.20;72.60
14733;DHT22;7457;50.960;6.830;2023-06-22T04:10:31;20.20;72.70
14733;DHT22;7457;50.960;6.830;2023-06-22T04:12:56;20.20;72.90
14733;DHT22;7457;50.960;6.830;2023-06-22T04:15:22;20.20;72.90
14733;DHT22;7457;50.960;6.830;2023-06-22T04:17:48;20.30;72.90
14733;DHT22;7457;50.960;6.830;2023-06-22T04:20:13;20.30;72.80
14733;DHT22;7457;50.960;6.830;2023-06-22T04:22:39;20.40;72.60
14733;DHT22;7457;50.960;6.830;2023-06-22T04:25:05;20.50;72.40
14733;DHT22;7457;50.960;6.830;2023-06-22T04:27:33;20.50;72.20
14733;DHT22;7457;50.960;6.830;2023-06-22T04:30:06;20.60;71.90
14733;DHT22;7457;50.960;6.830;2023-06-22T04:32:33;20.60;71.80
14733;DHT22;7457;50.960;6.830;2023-06-22T04:34:58;20.70;71.50
14733;DHT22;7457;50.960;6.830;2023-06-22T04:37:25;20.70;71.40
14733;DHT22;7457;50.960;6.830;2023-06-22T04:39:51;20.80;71.20
14733;DHT22;7457;50.960;6.830;2023-06-22T04:42:17;20.80;71.00
14733;DHT22;7457;50.960;6.830;2023-06-22T04:44:43;20.80;71.00
14733;DHT22;7457;50.960;6.830;2023-06-22T04:47:08;20.90;71.00
14733;DHT22;7457;50.960;6.830;2023-06-22T04:49:35;20.80;71.10
14733;DHT22;7457;50.960;6.830;2023-06-22T04:52:10;20.90;71.30
14733;DHT22;7457;50.960;6.830;2023-06-22T04:54:37;20.80;71.80
14733;DHT22;7457;50.960;6.830;2023-06-22T04:57:07;20.80;72.10
14733;DHT22;7457;50.960;6.830;2023-06-22T04:59:37;20.80;72.50
14733;DHT22;7457;50.960;6.830;2023-06-22T05:02:04;20.80;72.70
14733;DHT22;7457;50.960;6.830;2023-06-22T05:04:31;20.80;72.90
14733;DHT22;7457;50.960;6.830;2023-06-22T05:06:58;20.80;73.10
14733;DHT22;7457;50.960;6.830;2023-06-22T05:09:24;20.80;73.20
14733;DHT22;7457;50.960;6.830;2023-06-22T05:11:53;20.90;73.10
14733;DHT22;7457;50.960;6.830;2023-06-22T05:14:18;20.90;73.10
14733;DHT22;7457;50.960;6.830;2023-06-22T05:16:45;20.90;72.80
14733;DHT22;7457;50.960;6.830;2023-06-22T05:19:11;21.00;72.60
14733;DHT22;7457;50.960;6.830;2023-06-22T05:21:37;21.00;72.40
14733;DHT22;7457;50.960;6.830;2023-06-22T05:24:03;21.00;72.30
14733;DHT22;7457;50.960;6.830;2023-06-22T05:26:30;21.00;72.20
14733;DHT22;7457;50.960;6.830;2023-06-22T05:28:56;21.00;71.90
14733;DHT22;7457;50.960;6.830;2023-06-22T05:31:23;21.00;71.70
14733;DHT22;7457;50.960;6.830;2023-06-22T05:33:50;21.00;71.70
14733;DHT22;7457;50.960;6.830;2023-06-22T05:36:17;21.10;71.70
14733;DHT22;7457;50.960;6.830;2023-06-22T05:38:44;21.10;71.80
14733;DHT22;7457;50.960;6.830;2023-06-22T05:41:09;21.20;71.90
14733;DHT22;7457;50.960;6.830;2023-06-22T05:43:35;21.20;72.00
14733;DHT22;7457;50.960;6.830;2023-06-22T05:46:02;21.30;71.90
14733;DHT22;7457;50.960;6.830;2023-06-22T05:48:27;21.40;71.80
14733;DHT22;7457;50.960;6.830;2023-06-22T05:50:54;21.50;71.80
14733;DHT22;7457;50.960;6.830;2023-06-22T05:53:19;21.60;71.80
14733;DHT22;7457;50.960;6.830;2023-06-22T05:55:46;21.70;71.60
14733;DHT22;7457;50.960;6.830;2023-06-22T05:58:11;21.80;71.50
14733;DHT22;7457;50.960;6.830;2023-06-22T06:00:39;21.90;71.10
14733;DHT22;7457;50.960;6.830;2023-06-22T06:03:05;21.90;70.90
14733;DHT22;7457;50.960;6.830;2023-06-22T06:05:34;22.00;70.80
14733;DHT22;7457;50.960;6.830;2023-06-22T06:08:02;22.10;70.80
14733;DHT22;7457;50.960;6.830;2023-06-22T06:10:28;22.10;70.70
14733;DHT22;7457;50.960;6.830;2023-06-22T06:12:55;22.20;70.50
14733;DHT22;7457;50.960;6.830;2023-06-22T06:15:21;22.30;70.80
14733;DHT22;7457;50.960;6.830;2023-06-22T06:17:48;22.50;71.10
14733;DHT22;7457;50.960;6.830;2023-06-22T06:20:15;22.70;71.00
14733;DHT22;7457;50.960;6.830;2023-06-22T06:22:41;23.00;70.80
14733;DHT22;7457;50.960;6.830;2023-06-22T06:25:08;23.30;69.60
14733;DHT22;7457;50.960;6.830;2023-06-22T06:27:34;23.50;69.20
14733;DHT22;7457;50.960;6.830;2023-06-22T06:29:59;23.80;68.40
14733;DHT22;7457;50.960;6.830;2023-06-22T06:32:25;23.90;67.20
14733;DHT22;7457;50.960;6.830;2023-06-22T06:34:51;24.00;66.90
14733;DHT22;7457;50.960;6.830;2023-06-22T06:37:17;24.10;66.50
14733;DHT22;7457;50.960;6.830;2023-06-22T06:39:44;24.10;66.50
14733;DHT22;7457;50.960;6.830;2023-06-22T06:42:09;24.20;66.40
14733;DHT22;7457;50.960;6.830;2023-06-22T06:44:36;24.20;66.30
14733;DHT22;7457;50.960;6.830;2023-06-22T06:47:04;24.30;66.50
14733;DHT22;7457;50.960;6.830;2023-06-22T06:49:29;24.40;66.20
14733;DHT22;7457;50.960;6.830;2023-06-22T06:51:55;24.40;66.30
14733;DHT22;7457;50.960;6.830;2023-06-22T06:54:21;24.50;66.30
14733;DHT22;7457;50.960;6.830;2023-06-22T06:56:47;24.60;66.10
14733;DHT22;7457;50.960;6.830;2023-06-22T06:59:14;24.70;66.30
14733;DHT22;7457;50.960;6.830;2023-06-22T07:01:41;24.90;65.70
14733;DHT22;7457;50.960;6.830;2023-06-22T07:04:07;25.10;65.20
14733;DHT22;7457;50.960;6.830;2023-06-22T07:06:32;25.20;64.70
14733;DHT22;7457;50.960;6.830;2023-06-22T07:08:59;25.20;64.40
14733;DHT22;7457;50.960;6.830;2023-06-22T07:11:25;25.20;64.40
14733;DHT22;7457;50.960;6.830;2023-06-22T07:13:51;25.20;64.20
14733;DHT22;7457;50.960;6.830;2023-06-22T07:16:16;25.20;64.40
14733;DHT22;7457;50.960;6.830;2023-06-22T07:18:42;25.20;64.70
14733;DHT22;7457;50.960;6.830;2023-06-22T07:21:08;25.30;65.30
14733;DHT22;7457;50.960;6.830;2023-06-22T07:23:34;25.40;65.30
14733;DHT22;7457;50.960;6.830;2023-06-22T07:25:59;25.50;65.20
14733;DHT22;7457;50.960;6.830;2023-06-22T07:28:28;25.80;65.10
14733;DHT22;7457;50.960;6.830;2023-06-22T07:30:57;25.90;64.00
14733;DHT22;7457;50.960;6.830;2023-06-22T07:33:22;25.90;63.60
14733;DHT22;7457;50.960;6.830;2023-06-22T07:35:48;25.80;64.00
14733;DHT22;7457;50.960;6.830;2023-06-22T07:38:16;25.90;65.00
14733;DHT22;7457;50.960;6.830;2023-06-22T07:40:42;26.00;64.70
14733;DHT22;7457;50.960;6.830;2023-06-22T07:43:07;26.10;64.60
14733;DHT22;7457;50.960;6.830;2023-06-22T07:45:33;26.10;63.80
14733;DHT22;7457;50.960;6.830;2023-06-22T07:48:00;26.00;63.50
14733;DHT22;7457;50.960;6.830;2023-06-22T07:50:26;25.80;64.50
14733;DHT22;7457;50.960;6.830;2023-06-22T07:52:52;25.70;64.90
14733;DHT22;7457;50.960;6.830;2023-06-22T07:55:18;25.70;65.20
14733;DHT22;7457;50.960;6.830;2023-06-22T07:57:44;25.80;65.50
14733;DHT22;7457;50.960;6.830;2023-06-22T08:00:10;25.90;65.30
14733;DHT22;7457;50.960;6.830;2023-06-22T08:02:40;26.00;65.00
14733;DHT22;7457;50.960;6.830;2023-06-22T08:05:07;26.10;65.10
14733;DHT22;7457;50.960;6.830;2023-06-22T08:07:37;26.30;64.90
14733;DHT22;7457;50.960;6.830;2023-06-22T08:10:11;26.40;64.80
14733;DHT22;7457;50.960;6.830;2023-06-22T08:12:37;26.50;65.00
14733;DHT22;7457;50.960;6.830;2023-06-22T08:15:03;26.50;65.20
14733;DHT22;7457;50.960;6.830;2023-06-22T08:17:28;26.50;65.10
14733;DHT22;7457;50.960;6.830;2023-06-22T08:19:54;26.60;65.20
14733;DHT22;7457;50.960;6.830;2023-06-22T08:22:20;26.70;65.20
14733;DHT22;7457;50.960;6.830;2023-06-22T08:24:45;27.00;64.90
14733;DHT22;7457;50.960;6.830;2023-06-22T08:27:11;27.20;64.00
14733;DHT22;7457;50.960;6.830;2023-06-22T08:29:46;27.40;63.70
14733;DHT22;7457;50.960;6.830;2023-06-22T08:32:12;27.50;63.60
14733;DHT22;7457;50.960;6.830;2023-06-22T08:34:38;27.60;63.50
14733;DHT22;7457;50.960;6.830;2023-06-22T08:37:08;27.70;63.30
14733;DHT22;7457;50.960;6.830;2023-06-22T08:39:33;27.70;63.40
14733;DHT22;7457;50.960;6.830;2023-06-22T08:41:59;27.80;63.40
14733;DHT22;7457;50.960;6.830;2023-06-22T08:44:25;27.90;63.00
14733;DHT22;7457;50.960;6.830;2023-06-22T08:46:51;28.00;63.20
14733;DHT22;7457;50.960;6.830;2023-06-22T08:49:16;28.10;63.20
14733;DHT22;7457;50.960;6.830;2023-06-22T08:51:42;28.40;63.30
14733;DHT22;7457;50.960;6.830;2023-06-22T08:54:09;28.70;62.90
14733;DHT22;7457;50.960;6.830;2023-06-22T08:56:35;29.10;62.50
14733;DHT22;7457;50.960;6.830;2023-06-22T08:59:01;29.50;61.80
14733;DHT22;7457;50.960;6.830;2023-06-22T09:01:27;29.90;60.00
14733;DHT22;7457;50.960;6.830;2023-06-22T09:03:52;30.20;58.30
14733;DHT22;7457;50.960;6.830;2023-06-22T09:06:23;30.30;58.00
14733;DHT22;7457;50.960;6.830;2023-06-22T09:08:49;30.50;57.50
14733;DHT22;7457;50.960;6.830;2023-06-22T09:11:14;30.70;56.80
14733;DHT22;7457;50.960;6.830;2023-06-22T09:13:40;30.90;55.70
14733;DHT22;7457;50.960;6.830;2023-06-22T09:16:06;30.90;55.70
14733;DHT22;7457;50.960;6.830;2023-06-22T09:18:33;30.90;55.60
14733;DHT22;7457;50.960;6.830;2023-06-22T09:20:59;31.00;56.50
14733;DHT22;7457;50.960;6.830;2023-06-22T09:23:25;31.30;55.60
14733;DHT22;7457;50.960;6.830;2023-06-22T09:25:50;31.50;54.90
14733;DHT22;7457;50.960;6.830;2023-06-22T09:28:16;31.60;54.20
14733;DHT22;7457;50.960;6.830;2023-06-22T09:30:43;31.50;54.00
14733;DHT22;7457;50.960;6.830;2023-06-22T09:33:09;31.40;53.70
14733;DHT22;7457;50.960;6.830;2023-06-22T09:35:35;31.20;54.40
14733;DHT22;7457;50.960;6.830;2023-06-22T09:38:01;30.90;54.90
14733;DHT22;7457;50.960;6.830;2023-06-22T09:40:26;30.90;54.70
14733;DHT22;7457;50.960;6.830;2023-06-22T09:42:52;30.70;54.80
14733;DHT22;7457;50.960;6.830;2023-06-22T09:45:17;30.60;55.30
14733;DHT22;7457;50.960;6.830;2023-06-22T09:47:43;30.70;55.30
14733;DHT22;7457;50.960;6.830;2023-06-22T09:50:09;30.90;55.30
14733;DHT22;7457;50.960;6.830;2023-06-22T09:52:35;31.00;55.10
14733;DHT22;7457;50.960;6.830;2023-06-22T09:55:01;31.10;54.60
14733;DHT22;7457;50.960;6.830;2023-06-22T09:57:29;31.10;53.60
14733;DHT22;7457;50.960;6.830;2023-06-22T09:59:55;30.80;52.70
14733;DHT22;7457;50.960;6.830;2023-06-22T10:02:21;30.50;52.80
14733;DHT22;7457;50.960;6.830;2023-06-22T10:04:47;30.20;52.80
14733;DHT22;7457;50.960;6.830;2023-06-22T10:07:13;29.80;53.00
14733;DHT22;7457;50.960;6.830;2023-06-22T10:09:39;29.40;53.10
14733;DHT22;7457;50.960;6.830;2023-06-22T10:12:05;29.00;53.30
14733;DHT22;7457;50.960;6.830;2023-06-22T10:14:30;28.50;53.80
14733;DHT22;7457;50.960;6.830;2023-06-22T10:16:56;28.10;54.50
14733;DHT22;7457;50.960;6.830;2023-06-22T10:19:22;27.70;55.50
14733;DHT22;7457;50.960;6.830;2023-06-22T10:21:47;27.40;56.80
14733;DHT22;7457;50.960;6.830;2023-06-22T10:24:13;27.10;57.80
14733;DHT22;7457;50.960;6.830;2023-06-22T10:26:39;26.70;59.70
14733;DHT22;7457;50.960;6.830;2023-06-22T10:29:04;26.30;61.80
14733;DHT22;7457;50.960;6.830;2023-06-22T10:31:30;25.80;63.40
14733;DHT22;7457;50.960;6.830;2023-06-22T10:33:56;25.40;65.20
14733;DHT22;7457;50.960;6.830;2023-06-22T10:36:22;25.00;66.90
14733;DHT22;7457;50.960;6.830;2023-06-22T10:38:48;24.70;68.60
14733;DHT22;7457;50.960;6.830;2023-06-22T10:41:15;24.40;70.00
14733;DHT22;7457;50.960;6.830;2023-06-22T10:43:42;24.20;71.40
14733;DHT22;7457;50.960;6.830;2023-06-22T10:46:09;24.00;72.50
14733;DHT22;7457;50.960;6.830;2023-06-22T10:48:35;23.80;73.70
14733;DHT22;7457;50.960;6.830;2023-06-22T10:51:00;23.60;74.60
14733;DHT22;7457;50.960;6.830;2023-06-22T10:53:26;23.40;75.40
14733;DHT22;7457;50.960;6.830;2023-06-22T10:55:51;23.30;76.30
14733;DHT22;7457;50.960;6.830;2023-06-22T10:58:18;23.10;77.00
14733;DHT22;7457;50.960;6.830;2023-06-22T11:00:45;23.00;77.80
14733;DHT22;7457;50.960;6.830;2023-06-22T11:03:10;22.90;78.60
14733;DHT22;7457;50.960;6.830;2023-06-22T11:05:36;22.80;79.40
14733;DHT22;7457;50.960;6.830;2023-06-22T11:08:02;22.70;80.00
14733;DHT22;7457;50.960;6.830;2023-06-22T11:10:27;22.60;80.70
14733;DHT22;7457;50.960;6.830;2023-06-22T11:12:53;22.60;81.40
14733;DHT22;7457;50.960;6.830;2023-06-22T11:15:19;22.50;82.20
14733;DHT22;7457;50.960;6.830;2023-06-22T11:17:44;22.60;82.80
14733;DHT22;7457;50.960;6.830;2023-06-22T11:20:11;22.60;83.60
14733;DHT22;7457;50.960;6.830;2023-06-22T11:22:40;22.70;84.30
14733;DHT22;7457;50.960;6.830;2023-06-22T11:25:07;22.70;84.90
14733;DHT22;7457;50.960;6.830;2023-06-22T11:27:33;22.90;85.00
14733;DHT22;7457;50.960;6.830;2023-06-22T11:29:58;23.00;85.00
14733;DHT22;7457;50.960;6.830;2023-06-22T11:32:24;23.10;85.10
14733;DHT22;7457;50.960;6.830;2023-06-22T11:34:50;23.20;85.20
14733;DHT22;7457;50.960;6.830;2023-06-22T11:37:16;23.30;85.30
14733;DHT22;7457;50.960;6.830;2023-06-22T11:39:42;23.40;85.40
14733;DHT22;7457;50.960;6.830;2023-06-22T11:42:08;23.50;85.80
14733;DHT22;7457;50.960;6.830;2023-06-22T11:44:34;23.60;86.00
14733;DHT22;7457;50.960;6.830;2023-06-22T11:47:00;23.70;85.60
14733;DHT22;7457;50.960;6.830;2023-06-22T11:49:27;23.80;84.90
14733;DHT22;7457;50.960;6.830;2023-06-22T11:51:53;23.80;84.70
14733;DHT22;7457;50.960;6.830;2023-06-22T11:54:18;23.70;84.50
14733;DHT22;7457;50.960;6.830;2023-06-22T11:56:44;23.70;84.70
14733;DHT22;7457;50.960;6.830;2023-06-22T11:59:10;23.60;85.10
14733;DHT22;7457;50.960;6.830;2023-06-22T12:01:35;23.60;85.80
14733;DHT22;7457;50.960;6.830;2023-06-22T12:04:01;23.60;86.30
14733;DHT22;7457;50.960;6.830;2023-06-22T12:06:31;23.70;86.70
14733;DHT22;7457;50.960;6.830;2023-06-22T12:08:57;23.90;86.80
14733;DHT22;7457;50.960;6.830;2023-06-22T12:11:23;24.10;86.60
14733;DHT22;7457;50.960;6.830;2023-06-22T12:13:48;24.40;85.90
14733;DHT22;7457;50.960;6.830;2023-06-22T12:16:14;24.60;85.20
14733;DHT22;7457;50.960;6.830;2023-06-22T12:18:39;24.80;85.40
14733;DHT22;7457;50.960;6.830;2023-06-22T12:21:05;25.00;84.30
14733;DHT22;7457;50.960;6.830;2023-06-22T12:23:31;25.10;83.50
14733;DHT22;7457;50.960;6.830;2023-06-22T12:25:56;25.10;83.20
14733;DHT22;7457;50.960;6.830;2023-06-22T12:28:22;25.10;83.00
14733;DHT22;7457;50.960;6.830;2023-06-22T12:30:48;25.20;83.00
14733;DHT22;7457;50.960;6.830;2023-06-22T12:33:14;25.20;83.30
14733;DHT22;7457;50.960;6.830;2023-06-22T12:35:40;25.30;83.00
14733;DHT22;7457;50.960;6.830;2023-06-22T12:38:05;25.40;82.00
14733;DHT22;7457;50.960;6.830;2023-06-22T12:40:32;25.40;81.50
14733;DHT22;7457;50.960;6.830;2023-06-22T12:42:58;25.50;82.70
14733;DHT22;7457;50.960;6.830;2023-06-22T12:45:24;25.70;82.40
14733;DHT22;7457;50.960;6.830;2023-06-22T12:47:54;25.90;81.90
14733;DHT22;7457;50.960;6.830;2023-06-22T12:50:20;26.10;80.40
14733;DHT22;7457;50.960;6.830;2023-06-22T12:52:45;26.10;79.70
14733;DHT22;7457;50.960;6.830;2023-06-22T12:55:11;26.10;79.70
14733;DHT22;7457;50.960;6.830;2023-06-22T12:57:36;26.00;79.60
14733;DHT22;7457;50.960;6.830;2023-06-22T13:00:02;26.00;79.70
14733;DHT22;7457;50.960;6.830;2023-06-22T13:02:30;25.90;79.80
14733;DHT22;7457;50.960;6.830;2023-06-22T13:04:55;26.00;80.00
14733;DHT22;7457;50.960;6.830;2023-06-22T13:07:21;26.10;80.30
14733;DHT22;7457;50.960;6.830;2023-06-22T13:09:47;26.20;79.10
14733;DHT22;7457;50.960;6.830;2023-06-22T13:12:16;26.40;78.70
14733;DHT22;7457;50.960;6.830;2023-06-22T13:14:42;26.60;78.00
14733;DHT22;7457;50.960;6.830;2023-06-22T13:17:08;26.60;77.60
14733;DHT22;7457;50.960;6.830;2023-06-22T13:19:34;26.70;77.70
14733;DHT22;7457;50.960;6.830;2023-06-22T13:22:00;26.70;76.40
14733;DHT22;7457;50.960;6.830;2023-06-22T13:24:26;26.60;76.50
14733;DHT22;7457;50.960;6.830;2023-06-22T13:26:51;26.50;76.70
14733;DHT22;7457;50.960;6.830;2023-06-22T13:29:17;26.40;76.20
14733;DHT22;7457;50.960;6.830;2023-06-22T13:31:42;26.40;76.30
14733;DHT22;7457;50.960;6.830;2023-06-22T13:34:08;26.30;75.90
14733;DHT22;7457;50.960;6.830;2023-06-22T13:36:34;26.30;76.00
14733;DHT22;7457;50.960;6.830;2023-06-22T13:38:59;26.20;76.40
14733;DHT22;7457;50.960;6.830;2023-06-22T13:41:25;26.30;76.50
14733;DHT22;7457;50.960;6.830;2023-06-22T13:43:51;26.50;77.00
14733;DHT22;7457;50.960;6.830;2023-06-22T13:46:16;26.70;76.80
14733;DHT22;7457;50.960;6.830;2023-06-22T13:48:42;26.90;76.60
14733;DHT22;7457;50.960;6.830;2023-06-22T13:51:08;27.00;75.50
14733;DHT22;7457;50.960;6.830;2023-06-22T13:53:33;27.10;75.40
14733;DHT22;7457;50.960;6.830;2023-06-22T13:55:59;27.10;75.20
14733;DHT22;7457;50.960;6.830;2023-06-22T13:58:25;27.20;74.50
14733;DHT22;7457;50.960;6.830;2023-06-22T14:00:50;27.30;73.90
14733;DHT22;7457;50.960;6.830;2023-06-22T14:03:16;27.30;74.50
14733;DHT22;7457;50.960;6.830;2023-06-22T14:05:42;27.30;74.40
14733;DHT22;7457;50.960;6.830;2023-06-22T14:08:08;27.30;74.00
14733;DHT22;7457;50.960;6.830;2023-06-22T14:10:34;27.30;73.40
14733;DHT22;7457;50.960;6.830;2023-06-22T14:13:00;27.30;73.10
14733;DHT22;7457;50.960;6.830;2023-06-22T14:15:26;27.20;73.00
14733;DHT22;7457;50.960;6.830;2023-06-22T14:17:52;27.10;72.70
14733;DHT22;7457;50.960;6.830;2023-06-22T14:20:17;26.90;72.70
14733;DHT22;7457;50.960;6.830;2023-06-22T14:22:43;26.80;72.70
14733;DHT22;7457;50.960;6.830;2023-06-22T14:25:09;26.70;72.70
14733;DHT22;7457;50.960;6.830;2023-06-22T14:27:35;26.60;72.90
14733;DHT22;7457;50.960;6.830;2023-06-22T14:30:00;26.50;73.10
14733;DHT22;7457;50.960;6.830;2023-06-22T14:32:28;26.50;73.60
14733;DHT22;7457;50.960;6.830;2023-06-22T14:34:55;26.50;73.60
14733;DHT22;7457;50.960;6.830;2023-06-22T14:37:21;26.40;73.40
14733;DHT22;7457;50.960;6.830;2023-06-22T14:39:46;26.30;73.30
14733;DHT22;7457;50.960;6.830;2023-06-22T14:42:12;26.20;73.90
14733;DHT22;7457;50.960;6.830;2023-06-22T14:44:37;26.10;74.80
14733;DHT22;7457;50.960;6.830;2023-06-22T14:47:03;26.10;75.10
14733;DHT22;7457;50.960;6.830;2023-06-22T14:49:29;26.10;75.20
14733;DHT22;7457;50.960;6.830;2023-06-22T14:52:07;26.10;75.30
14733;DHT22;7457;50.960;6.830;2023-06-22T14:54:34;26.10;75.30
14733;DHT22;7457;50.960;6.830;2023-06-22T14:56:59;26.20;75.20
14733;DHT22;7457;50.960;6.830;2023-06-22T14:59:25;26.20;74.70
14733;DHT22;7457;50.960;6.830;2023-06-22T15:01:50;26.20;74.10
14733;DHT22;7457;50.960;6.830;2023-06-22T15:04:16;26.20;73.60
14733;DHT22;7457;50.960;6.830;2023-06-22T15:07:00;26.10;73.40
14733;DHT22;7457;50.960;6.830;2023-06-22T15:09:26;26.00;73.10
14733;DHT22;7457;50.960;6.830;2023-06-22T15:11:52;25.80;72.70
14733;DHT22;7457;50.960;6.830;2023-06-22T15:14:18;25.60;72.70
14733;DHT22;7457;50.960;6.830;2023-06-22T15:16:43;25.40;72.70
14733;DHT22;7457;50.960;6.830;2023-06-22T15:19:09;25.20;72.60
14733;DHT22;7457;50.960;6.830;2023-06-22T15:21:35;24.90;73.00
14733;DHT22;7457;50.960;6.830;2023-06-22T15:24:00;24.70;73.60
14733;DHT22;7457;50.960;6.830;2023-06-22T15:26:26;24.30;75.10
14733;DHT22;7457;50.960;6.830;2023-06-22T15:28:52;23.80;77.30
14733;DHT22;7457;50.960;6.830;2023-06-22T15:31:17;23.50;78.60
14733;DHT22;7457;50.960;6.830;2023-06-22T15:33:43;23.10;79.70
14733;DHT22;7457;50.960;6.830;2023-06-22T15:36:08;22.80;81.30
14733;DHT22;7457;50.960;6.830;2023-06-22T15:38:34;22.50;82.70
14733;DHT22;7457;50.960;6.830;2023-06-22T15:41:00;22.30;84.00
14733;DHT22;7457;50.960;6.830;2023-06-22T15:43:26;22.20;84.60
14733;DHT22;7457;50.960;6.830;2023-06-22T15:45:52;22.10;85.00